Terminal Aerodrome Forecast
Issued by NWS Upton, NY

Home | Current Version | Previous Version | Text Only | Print | Product List | Glossary On
Versions: 1 2 3 4 5 6 7 8 9 10 11 12 13 14 15 16 17 18 19 20 21 22 23 24 25 26 27
000
FTUS41 KOKX 172000 AAA
TAFEWR
TAF AMD
KEWR 172044Z 1721/1824 28011G20KT P6SM VCSH FEW035 OVC045
     FM172200 28012G20KT P6SM SCT040 BKN060
     FM180500 28015G23KT P6SM BKN060
     FM181000 27012KT P6SM SCT060
     FM181500 29020G27KT P6SM SCT035
     FM182100 29013G20KT P6SM SCT035=

USA.gov is the U.S. government's official web portal to all federal, state and local government web resources and services.